Terminal Aerodrome Forecast
Issued by NWS

Home | Current Version | Previous Version | Text Only | Print | Product List | Glossary On
Versions: 1 2 3 4 5 6 7 8 9 10 11 12 13 14 15 16 17 18 19
000
FTUS46 KSEW 240709 AAA
TAFHQM
TAF AMD
KHQM 240709Z 2407/2506 23015G25KT P6SM VCSH BKN020 BKN030 OVC040
     FM240900 20010KT P6SM SCT030 SCT050
     FM241500 18010KT P6SM VCSH BKN030 OVC050
     FM241800 18012KT P6SM -RA BKN030 OVC040=

USA.gov is the U.S. government's official web portal to all federal, state and local government web resources and services.